Time;durP1;ratioP1;P1;durP2;ratioP2;P2;SDS_P1;SDS_P2;PMS_P1;PMS_P2;Temp;Humidity;BMP_temperature;BMP_pressure;BME280_temperature;BME280_humidity;BME280_pressure;Samples;Min_cycle;Max_cycle;Signal;HPM_P1;HPM_P2
2022/04/17 00:02:01;;;;;;;20.63;13.67;;;5.00;99.90;;;;;;5035297;28;20219;-47
2022/04/17 00:04:27;;;;;;;21.40;13.50;;;5.00;99.90;;;;;;5032186;28;20191;-46
2022/04/17 00:06:53;;;;;;;17.80;12.30;;;5.00;99.90;;;;;;5031492;28;20529;-47
2022/04/17 00:09:19;;;;;;;22.87;12.40;;;5.00;99.90;;;;;;5038804;28;20884;-46
2022/04/17 00:11:45;;;;;;;17.60;11.80;;;4.90;99.90;;;;;;5033797;28;20201;-47
2022/04/17 00:14:11;;;;;;;19.30;12.87;;;4.90;99.90;;;;;;5041315;28;20198;-46
2022/04/17 00:16:37;;;;;;;16.90;12.23;;;4.90;99.90;;;;;;5030002;28;20471;-46
2022/04/17 00:19:03;;;;;;;21.00;13.97;;;4.90;99.90;;;;;;5032382;28;20568;-48
2022/04/17 00:21:29;;;;;;;20.60;13.60;;;4.90;99.90;;;;;;5030945;28;20476;-48
2022/04/17 00:23:54;;;;;;;24.60;14.50;;;4.80;99.90;;;;;;5031200;28;21214;-48
2022/04/17 00:26:20;;;;;;;22.17;15.13;;;4.80;99.90;;;;;;5030135;28;20194;-48
2022/04/17 00:28:46;;;;;;;26.43;16.00;;;4.80;99.90;;;;;;5030491;28;20197;-48
2022/04/17 00:31:11;;;;;;;25.60;16.93;;;4.80;99.90;;;;;;5030803;28;20575;-48
2022/04/17 00:33:37;;;;;;;26.30;16.83;;;4.80;99.90;;;;;;5030684;28;20190;-48
2022/04/17 00:36:02;;;;;;;32.13;18.40;;;4.80;99.90;;;;;;5020173;28;20202;-48
2022/04/17 00:38:28;;;;;;;32.63;18.97;;;4.70;99.90;;;;;;5030867;28;20654;-48
2022/04/17 00:40:54;;;;;;;29.17;18.73;;;4.80;99.90;;;;;;5035379;28;20187;-48
2022/04/17 00:43:30;;;;;;;34.17;19.83;;;4.70;99.90;;;;;;5028669;28;20276;-48
2022/04/17 00:46:00;;;;;;;31.27;20.73;;;4.70;99.90;;;;;;5023934;28;20477;-49
2022/04/17 00:48:26;;;;;;;33.13;20.73;;;4.80;99.90;;;;;;5030005;28;20576;-48
2022/04/17 00:50:55;;;;;;;35.20;19.80;;;4.80;99.90;;;;;;5031258;28;21204;-49
2022/04/17 00:53:22;;;;;;;33.27;20.87;;;4.80;99.90;;;;;;5046438;28;20495;-48
2022/04/17 00:55:48;;;;;;;35.60;22.27;;;4.80;99.90;;;;;;5030350;28;20843;-48
2022/04/17 00:58:14;;;;;;;35.10;21.57;;;4.80;99.90;;;;;;5031162;28;20441;-48
2022/04/17 01:00:43;;;;;;;34.87;22.07;;;4.80;99.90;;;;;;5030474;28;20434;-48
2022/04/17 01:03:12;;;;;;;40.97;23.10;;;4.70;99.90;;;;;;5030464;28;20322;-48
2022/04/17 01:05:42;;;;;;;38.37;22.63;;;4.80;99.90;;;;;;5030557;28;20418;-48
2022/04/17 01:08:10;;;;;;;35.60;22.63;;;4.80;99.90;;;;;;5030367;28;20426;-48
2022/04/17 01:10:37;;;;;;;41.20;22.33;;;4.70;99.90;;;;;;5029606;28;20888;-48
2022/04/17 01:13:03;;;;;;;39.63;23.53;;;4.70;99.90;;;;;;5030221;28;20437;-48
2022/04/17 01:15:29;;;;;;;39.07;22.40;;;4.70;99.90;;;;;;5029627;28;20499;-48
2022/04/17 01:17:55;;;;;;;38.80;23.03;;;4.80;99.90;;;;;;5036163;28;20435;-48
2022/04/17 01:20:23;;;;;;;42.70;24.00;;;4.80;99.90;;;;;;5030689;28;20433;-48
2022/04/17 01:22:49;;;;;;;41.23;23.13;;;4.80;99.90;;;;;;5004206;28;20237;-49
2022/04/17 01:28:03;;;;;;;40.53;24.60;;;4.90;99.90;;;;;;5024067;28;20433;-48
2022/04/17 01:30:28;;;;;;;41.90;24.50;;;4.90;99.90;;;;;;5029903;28;20794;-48
2022/04/17 01:32:54;;;;;;;48.33;25.30;;;4.90;99.90;;;;;;5030278;28;20491;-48
2022/04/17 01:35:19;;;;;;;41.80;24.23;;;4.90;99.90;;;;;;5030229;28;21000;-48
2022/04/17 01:37:49;;;;;;;43.93;25.70;;;4.90;99.90;;;;;;5030449;28;20179;-48
2022/04/17 01:40:15;;;;;;;38.67;23.90;;;4.80;99.90;;;;;;5030298;28;20638;-48
2022/04/17 01:42:40;;;;;;;35.13;21.93;;;4.80;99.90;;;;;;5015743;28;20461;-46
2022/04/17 01:45:06;;;;;;;49.87;26.27;;;4.80;99.90;;;;;;5029993;28;20222;-46
2022/04/17 01:47:32;;;;;;;46.93;26.57;;;4.80;99.90;;;;;;5029211;28;20189;-49
2022/04/17 01:49:57;;;;;;;40.17;23.50;;;4.80;99.90;;;;;;5022356;28;20474;-46
2022/04/17 01:52:23;;;;;;;45.43;24.77;;;4.90;99.90;;;;;;5017681;28;20656;-47
2022/04/17 01:54:49;;;;;;;42.97;24.57;;;4.90;99.90;;;;;;5018619;28;20193;-48
2022/04/17 01:57:15;;;;;;;41.33;23.90;;;4.90;99.90;;;;;;5010643;28;20194;-48
2022/04/17 01:59:40;;;;;;;39.03;22.93;;;5.00;99.90;;;;;;5021514;28;20191;-48
2022/04/17 02:02:06;;;;;;;33.70;22.47;;;4.90;99.90;;;;;;5015350;28;20493;-48
2022/04/17 02:04:35;;;;;;;36.50;22.57;;;4.80;99.90;;;;;;5018908;28;20198;-48
2022/04/17 02:07:05;;;;;;;36.87;21.50;;;4.90;99.90;;;;;;5012647;28;20261;-48
2022/04/17 02:09:30;;;;;;;38.77;20.53;;;4.80;99.90;;;;;;5022226;28;20437;-48
2022/04/17 02:11:56;;;;;;;39.87;20.87;;;4.80;99.90;;;;;;5017787;28;20437;-48
2022/04/17 02:14:22;;;;;;;37.13;20.47;;;4.70;99.90;;;;;;5010396;28;20263;-48
2022/04/17 02:16:48;;;;;;;35.63;20.10;;;4.80;99.90;;;;;;5010194;28;20590;-49
2022/04/17 02:19:14;;;;;;;35.03;20.70;;;4.90;99.90;;;;;;5009742;28;20469;-48
2022/04/17 02:21:39;;;;;;;33.67;20.37;;;4.90;99.90;;;;;;5010700;28;20357;-48
2022/04/17 02:24:05;;;;;;;35.03;20.70;;;4.90;99.90;;;;;;5005369;28;20191;-47
2022/04/17 02:26:31;;;;;;;33.93;20.70;;;4.90;99.90;;;;;;5009765;28;20250;-48
2022/04/17 02:28:58;;;;;;;35.37;20.57;;;4.80;99.90;;;;;;5009731;28;21298;-48
2022/04/17 02:31:24;;;;;;;36.53;21.27;;;4.70;99.90;;;;;;5010758;28;20430;-48
2022/04/17 02:33:50;;;;;;;39.07;21.80;;;4.70;99.90;;;;;;5001943;28;20441;-48
2022/04/17 02:36:16;;;;;;;37.17;22.90;;;4.60;99.90;;;;;;5009680;28;20423;-48
2022/04/17 02:38:42;;;;;;;36.07;21.07;;;4.60;99.90;;;;;;5009828;28;21271;-48
2022/04/17 02:41:07;;;;;;;34.20;21.53;;;4.50;99.90;;;;;;5011748;28;20176;-48
2022/04/17 02:43:32;;;;;;;31.37;20.73;;;4.50;99.90;;;;;;5010951;28;20214;-48
2022/04/17 02:45:58;;;;;;;36.67;21.40;;;4.50;99.90;;;;;;5013053;28;20194;-48
2022/04/17 02:48:24;;;;;;;41.30;23.13;;;4.40;99.90;;;;;;5015352;28;20312;-47
2022/04/17 02:50:49;;;;;;;36.43;21.00;;;4.30;99.90;;;;;;5029007;28;20556;-48
2022/04/17 02:53:16;;;;;;;39.67;21.80;;;4.30;99.90;;;;;;5013976;28;20274;-48
2022/04/17 02:55:42;;;;;;;40.10;21.00;;;4.30;99.90;;;;;;5027826;28;20233;-48
2022/04/17 02:58:10;;;;;;;35.70;20.67;;;4.20;99.90;;;;;;5029756;28;20430;-48
2022/04/17 03:05:36;;;;;;;32.97;21.00;;;4.20;99.90;;;;;;5027720;28;20447;-48
2022/04/17 03:06:09;;;;;;;33.50;20.03;;;4.10;99.90;;;;;;5028400;28;20873;-48
2022/04/17 03:08:34;;;;;;;40.20;21.30;;;4.00;99.90;;;;;;5028791;28;20780;-48
2022/04/17 03:11:00;;;;;;;31.53;20.20;;;4.00;99.90;;;;;;5024396;28;20510;-48
2022/04/17 03:13:25;;;;;;;41.07;21.97;;;4.00;99.90;;;;;;5028761;28;20187;-48
2022/04/17 03:15:51;;;;;;;37.30;21.50;;;4.00;99.90;;;;;;5031515;28;20580;-48
2022/04/17 03:18:16;;;;;;;37.27;21.50;;;3.90;99.90;;;;;;5028688;28;20188;-48
2022/04/17 03:20:42;;;;;;;33.60;20.07;;;3.90;99.90;;;;;;5028859;28;20194;-48
2022/04/17 03:23:07;;;;;;;29.00;19.57;;;3.90;99.90;;;;;;5028821;28;20348;-49
2022/04/17 03:25:33;;;;;;;39.60;21.70;;;3.80;99.90;;;;;;5027982;28;20176;-49
2022/04/17 03:28:00;;;;;;;29.47;20.20;;;3.70;99.90;;;;;;5028156;28;20184;-48
2022/04/17 03:30:25;;;;;;;34.10;21.00;;;3.70;99.90;;;;;;5028850;28;20501;-48
2022/04/17 03:32:51;;;;;;;34.07;19.93;;;3.70;99.90;;;;;;5028178;28;20494;-48
2022/04/17 03:35:18;;;;;;;38.40;19.93;;;3.60;99.90;;;;;;5028429;28;20179;-48
2022/04/17 03:37:43;;;;;;;33.63;19.83;;;3.60;99.90;;;;;;5026776;28;20696;-48
2022/04/17 03:40:14;;;;;;;35.10;20.90;;;3.50;99.90;;;;;;5028777;28;20600;-48
2022/04/17 03:42:41;;;;;;;30.37;18.80;;;3.40;99.90;;;;;;5028093;28;20512;-48
2022/04/17 03:45:08;;;;;;;32.50;20.00;;;3.40;99.90;;;;;;5027422;28;20478;-48
2022/04/17 03:47:35;;;;;;;35.33;19.73;;;3.30;99.90;;;;;;5030408;28;20430;-48
2022/04/17 03:50:00;;;;;;;37.43;21.60;;;3.20;99.90;;;;;;5031437;28;20476;-48
2022/04/17 03:52:26;;;;;;;36.13;21.70;;;3.10;99.90;;;;;;5032182;28;20433;-48
2022/04/17 03:54:52;;;;;;;33.53;21.03;;;3.10;99.90;;;;;;5031514;28;20229;-48
2022/04/17 03:57:17;;;;;;;36.80;21.40;;;3.00;99.90;;;;;;5031759;28;20465;-48
2022/04/17 03:59:43;;;;;;;46.03;23.93;;;3.00;99.90;;;;;;5031505;28;20249;-48
2022/04/17 04:02:08;;;;;;;42.37;24.30;;;2.90;99.90;;;;;;5032072;28;20294;-48
2022/04/17 04:04:35;;;;;;;44.10;24.40;;;2.90;99.90;;;;;;5032256;28;20190;-48
2022/04/17 04:07:01;;;;;;;35.17;22.87;;;2.80;99.90;;;;;;5030928;28;20175;-48
2022/04/17 04:09:26;;;;;;;37.50;23.93;;;2.70;99.90;;;;;;5032106;28;20919;-48
2022/04/17 04:11:52;;;;;;;41.73;24.97;;;2.70;99.90;;;;;;5009863;28;20195;-48
2022/04/17 04:14:17;;;;;;;45.03;26.67;;;2.60;99.90;;;;;;5038187;28;20198;-48
2022/04/17 04:16:43;;;;;;;52.27;28.13;;;2.60;1.00;;;;;;5031626;28;20183;-48
2022/04/17 04:19:12;;;;;;;41.33;26.27;;;2.60;1.00;;;;;;5031955;28;20951;-49
2022/04/17 04:21:47;;;;;;;42.13;26.90;;;2.50;1.00;;;;;;5031422;28;20221;-49
2022/04/17 04:24:14;;;;;;;45.50;27.70;;;2.50;1.00;;;;;;5031355;28;20422;-48
2022/04/17 04:26:41;;;;;;;41.60;25.70;;;2.50;1.00;;;;;;5030583;28;20465;-48
2022/04/17 04:29:06;;;;;;;42.50;25.90;;;2.50;1.00;;;;;;5031164;28;20437;-48
2022/04/17 04:31:31;;;;;;;42.67;28.20;;;2.40;1.00;;;;;;5031190;28;20460;-48
2022/04/17 04:33:57;;;;;;;60.73;29.00;;;2.40;1.00;;;;;;5030935;28;20187;-48
2022/04/17 04:36:22;;;;;;;47.30;27.67;;;2.40;1.00;;;;;;5031180;28;20675;-48
2022/04/17 04:38:48;;;;;;;41.57;24.60;;;2.30;1.00;;;;;;5013173;28;20183;-48
2022/04/17 04:41:13;;;;;;;45.13;26.73;;;2.30;1.00;;;;;;5031367;28;20233;-48
2022/04/17 04:43:39;;;;;;;52.87;27.63;;;2.30;1.00;;;;;;5031281;28;20210;-48
2022/04/17 04:46:07;;;;;;;43.30;26.50;;;2.20;1.00;;;;;;5031225;28;20190;-49
2022/04/17 04:51:19;;;;;;;46.17;28.47;;;2.30;1.00;;;;;;5013750;28;20469;-48
2022/04/17 04:53:44;;;;;;;49.23;29.00;;;2.30;1.00;;;;;;5016108;28;20422;-48
2022/04/17 04:56:10;;;;;;;46.73;29.27;;;2.30;1.00;;;;;;5011978;28;20435;-48
2022/04/17 04:58:36;;;;;;;57.50;30.97;;;2.30;1.00;;;;;;5013033;28;20569;-48
2022/04/17 05:01:02;;;;;;;51.37;29.77;;;2.40;1.00;;;;;;5017342;28;20211;-49
2022/04/17 05:03:28;;;;;;;46.50;29.37;;;2.40;1.00;;;;;;5018583;28;20238;-48
2022/04/17 05:05:53;;;;;;;52.30;29.57;;;2.50;1.00;;;;;;5010579;28;20927;-48
2022/04/17 05:08:19;;;;;;;44.83;29.87;;;2.60;1.00;;;;;;5011325;28;20184;-48
2022/04/17 05:10:45;;;;;;;44.43;28.97;;;2.60;1.00;;;;;;5011251;28;20286;-46
2022/04/17 05:13:11;;;;;;;48.90;29.63;;;2.70;1.00;;;;;;5019911;28;21058;-46
2022/04/17 05:15:37;;;;;;;43.57;28.87;;;2.70;1.00;;;;;;4998156;28;20457;-47
2022/04/17 05:18:04;;;;;;;50.07;30.07;;;2.70;1.00;;;;;;5009215;28;20198;-47
2022/04/17 05:20:33;;;;;;;47.87;29.70;;;2.80;1.00;;;;;;5018708;28;20445;-46
2022/04/17 05:23:29;;;;;;;46.57;28.97;;;2.90;1.00;;;;;;5010805;28;20991;-47
2022/04/17 05:25:56;;;;;;;43.53;28.30;;;3.00;1.00;;;;;;5015789;28;20897;-46
2022/04/17 05:28:22;;;;;;;46.10;28.20;;;3.20;1.00;;;;;;5011071;28;21328;-47
2022/04/17 05:30:47;;;;;;;41.90;26.47;;;3.30;1.00;;;;;;5019127;28;20426;-47
2022/04/17 05:33:16;;;;;;;38.73;25.70;;;3.40;1.00;;;;;;5014567;28;20453;-47
2022/04/17 05:35:42;;;;;;;45.93;25.87;;;3.60;1.00;;;;;;5010964;28;20231;-47
2022/04/17 05:38:07;;;;;;;41.37;25.23;;;3.70;1.00;;;;;;5010279;28;20959;-47
2022/04/17 05:40:39;;;;;;;44.43;26.07;;;3.90;1.00;;;;;;5010669;28;20188;-47
2022/04/17 05:43:05;;;;;;;37.33;24.30;;;4.10;1.00;;;;;;5017643;28;20213;-47
2022/04/17 05:45:32;;;;;;;40.33;23.90;;;4.40;1.00;;;;;;5019726;28;20785;-47
2022/04/17 05:47:58;;;;;;;40.27;25.20;;;4.60;99.90;;;;;;5013710;28;20973;-46
2022/04/17 05:50:24;;;;;;;38.37;24.87;;;4.70;99.90;;;;;;5028390;28;20552;-47
2022/04/17 05:52:51;;;;;;;44.07;26.60;;;4.80;99.90;;;;;;5029750;28;20293;-47
2022/04/17 05:55:16;;;;;;;46.30;24.90;;;5.00;99.90;;;;;;5029131;28;20701;-47
2022/04/17 05:57:42;;;;;;;41.80;27.33;;;5.20;99.90;;;;;;5029215;28;20440;-47
2022/04/17 06:00:09;;;;;;;47.47;27.53;;;5.50;99.90;;;;;;5008156;28;20210;-47
2022/04/17 06:02:35;;;;;;;40.23;24.00;;;5.70;99.90;;;;;;5028174;28;20289;-47
2022/04/17 06:05:03;;;;;;;35.57;22.27;;;6.00;99.90;;;;;;5028217;28;20517;-47
2022/04/17 06:07:29;;;;;;;31.80;19.03;;;6.30;99.90;;;;;;5028901;28;20426;-47
2022/04/17 06:09:55;;;;;;;38.37;20.77;;;6.60;99.90;;;;;;5029223;28;20484;-47
2022/04/17 06:12:20;;;;;;;33.23;21.47;;;6.90;99.90;;;;;;5028778;28;20441;-47
2022/04/17 06:14:46;;;;;;;30.00;18.10;;;7.20;99.90;;;;;;5029508;28;20179;-46
2022/04/17 06:17:12;;;;;;;34.83;20.30;;;7.40;99.90;;;;;;5030079;28;20237;-47
2022/04/17 06:19:37;;;;;;;37.10;20.33;;;7.60;99.90;;;;;;5028833;28;20187;-47
2022/04/17 06:22:04;;;;;;;29.57;17.87;;;7.90;99.90;;;;;;5029091;28;20297;-46
2022/04/17 06:24:29;;;;;;;27.40;17.23;;;8.10;99.90;;;;;;5028200;28;20248;-47
2022/04/17 06:26:55;;;;;;;31.27;16.00;;;8.20;99.90;;;;;;5029123;28;20433;-47
2022/04/17 06:29:22;;;;;;;27.50;16.57;;;8.40;99.90;;;;;;5032422;28;20178;-47
2022/04/17 06:31:48;;;;;;;25.80;16.23;;;8.50;99.90;;;;;;5029875;28;20190;-47
2022/04/17 06:34:15;;;;;;;27.80;16.27;;;8.70;99.90;;;;;;5017865;28;20441;-47
2022/04/17 06:36:41;;;;;;;23.37;14.90;;;8.90;99.90;;;;;;5029678;28;20187;-47
2022/04/17 06:39:07;;;;;;;21.43;13.63;;;9.10;99.90;;;;;;5029583;28;21054;-47
2022/04/17 06:41:32;;;;;;;21.13;12.97;;;9.40;99.90;;;;;;5012682;28;20469;-48
2022/04/17 06:43:58;;;;;;;18.87;11.70;;;9.50;99.90;;;;;;5029241;28;20179;-47
2022/04/17 06:46:23;;;;;;;25.23;12.57;;;9.60;99.90;;;;;;5011529;28;20191;-48
2022/04/17 06:48:49;;;;;;;18.27;11.50;;;9.80;99.90;;;;;;5028353;28;20223;-48
2022/04/17 06:51:15;;;;;;;16.43;10.60;;;9.90;99.90;;;;;;5028920;28;20187;-48
2022/04/17 06:53:40;;;;;;;15.03;9.60;;;10.00;99.90;;;;;;5028905;28;20690;-48
2022/04/17 06:56:07;;;;;;;19.47;10.50;;;10.10;99.90;;;;;;5028283;28;20981;-48
2022/04/17 06:58:32;;;;;;;14.13;9.83;;;10.40;99.90;;;;;;5035407;28;20609;-48
2022/04/17 07:00:58;;;;;;;13.17;8.47;;;10.60;99.90;;;;;;5028037;28;20525;-48
2022/04/17 07:03:24;;;;;;;15.80;9.10;;;10.60;99.90;;;;;;5028145;28;20236;-48
2022/04/17 07:05:49;;;;;;;13.53;8.97;;;10.60;99.90;;;;;;5028381;28;20536;-48
2022/04/17 07:08:15;;;;;;;15.70;8.70;;;10.90;99.90;;;;;;5027860;28;20230;-47
2022/04/17 07:10:41;;;;;;;14.87;9.97;;;11.00;99.90;;;;;;5029973;28;20197;-48
2022/04/17 07:13:15;;;;;;;18.03;10.40;;;11.10;99.90;;;;;;5027166;28;20555;-46
2022/04/17 07:15:41;;;;;;;14.70;9.50;;;11.30;99.90;;;;;;5027816;28;20974;-46
2022/04/17 07:18:06;;;;;;;12.57;8.80;;;11.10;99.90;;;;;;5029056;28;20536;-46
2022/04/17 07:20:32;;;;;;;15.77;9.43;;;11.00;99.90;;;;;;5029126;28;20217;-46
2022/04/17 07:23:00;;;;;;;12.93;9.40;;;11.30;99.90;;;;;;5029849;28;20205;-47
2022/04/17 07:25:26;;;;;;;17.83;10.70;;;11.50;99.90;;;;;;5031994;28;20318;-50
2022/04/17 07:27:52;;;;;;;14.57;9.50;;;11.50;99.90;;;;;;5031432;28;20508;-46
2022/04/17 07:30:19;;;;;;;16.40;10.87;;;11.70;99.90;;;;;;5033001;28;20922;-47
2022/04/17 07:32:48;;;;;;;16.30;10.50;;;12.10;99.90;;;;;;5031529;28;20468;-46
2022/04/17 07:35:15;;;;;;;13.80;9.60;;;12.50;99.90;;;;;;5031809;28;20456;-47
2022/04/17 07:37:41;;;;;;;11.03;8.20;;;12.30;99.90;;;;;;5029409;28;21290;-47
2022/04/17 07:40:10;;;;;;;15.50;8.63;;;12.30;99.90;;;;;;5038357;28;20447;-47
2022/04/17 07:42:36;;;;;;;13.50;9.07;;;12.40;99.90;;;;;;5031343;28;20207;-46
2022/04/17 07:45:02;;;;;;;16.10;9.07;;;12.50;99.90;;;;;;5034500;28;20767;-47
2022/04/17 07:47:28;;;;;;;13.50;10.00;;;12.70;99.90;;;;;;5019533;28;20270;-46
2022/04/17 07:49:53;;;;;;;14.83;10.50;;;12.70;99.90;;;;;;5017663;28;20231;-46
2022/04/17 07:52:19;;;;;;;18.40;11.70;;;12.80;99.90;;;;;;5016192;28;20427;-47
2022/04/17 07:54:45;;;;;;;18.80;12.13;;;13.00;99.90;;;;;;5017886;28;20184;-54
2022/04/17 07:57:14;;;;;;;14.90;10.80;;;13.50;99.90;;;;;;5017283;28;20180;-47
2022/04/17 07:59:40;;;;;;;13.43;10.73;;;13.80;99.90;;;;;;5008549;28;20237;-47
2022/04/17 08:02:21;;;;;;;21.03;11.20;;;14.10;99.90;;;;;;5009150;28;20473;-46
2022/04/17 08:04:47;;;;;;;16.53;10.80;;;14.20;99.90;;;;;;5017251;28;20896;-46
2022/04/17 08:07:13;;;;;;;15.80;10.40;;;14.20;99.90;;;;;;5011522;28;20819;-46
2022/04/17 08:09:38;;;;;;;13.10;8.60;;;14.50;99.90;;;;;;5022974;28;20438;-46
2022/04/17 08:12:04;;;;;;;15.77;9.10;;;14.70;99.90;;;;;;5012259;28;20195;-47
2022/04/17 08:14:29;;;;;;;15.93;8.17;;;14.60;99.90;;;;;;5017888;28;20229;-47
2022/04/17 08:16:55;;;;;;;12.73;6.73;;;14.90;99.90;;;;;;5011766;28;20184;-47
2022/04/17 08:19:22;;;;;;;11.47;7.50;;;15.20;99.90;;;;;;5010338;28;20270;-46
2022/04/17 08:21:47;;;;;;;8.37;5.90;;;15.30;99.90;;;;;;5011798;28;20736;-47
2022/04/17 08:24:13;;;;;;;9.60;6.37;;;15.20;99.90;;;;;;5017311;28;20434;-47
2022/04/17 08:26:38;;;;;;;13.13;5.97;;;15.20;99.90;;;;;;5010843;28;20226;-47
2022/04/17 08:29:04;;;;;;;5.63;4.90;;;15.30;99.90;;;;;;5012504;28;20215;-47
2022/04/17 08:31:29;;;;;;;6.50;5.00;;;15.40;99.90;;;;;;4994750;28;20198;-46
2022/04/17 08:33:55;;;;;;;6.20;4.57;;;15.50;99.90;;;;;;5010796;28;20274;-46
2022/04/17 08:36:20;;;;;;;6.00;3.80;;;15.70;99.90;;;;;;5016678;28;20625;-47
2022/04/17 08:38:46;;;;;;;7.73;4.50;;;15.70;99.90;;;;;;5023038;28;20193;-47
2022/04/17 08:41:12;;;;;;;4.40;4.00;;;15.90;99.90;;;;;;5014320;28;20179;-48
2022/04/17 08:43:37;;;;;;;7.90;4.20;;;16.20;99.90;;;;;;5016330;28;20744;-46
2022/04/17 08:46:03;;;;;;;5.73;3.90;;;16.10;99.90;;;;;;5012828;28;20434;-47
2022/04/17 08:48:31;;;;;;;6.00;4.77;;;16.40;99.90;;;;;;5029261;28;20276;-47
2022/04/17 08:50:57;;;;;;;7.60;4.33;;;16.60;99.90;;;;;;5031514;28;20633;-47
2022/04/17 08:53:24;;;;;;;5.03;4.10;;;16.70;99.90;;;;;;5023266;28;20449;-46
2022/04/17 08:55:51;;;;;;;4.70;4.00;;;16.80;99.90;;;;;;5031187;28;20633;-47
2022/04/17 08:58:17;;;;;;;6.43;4.70;;;17.00;99.90;;;;;;5031286;28;20472;-47
2022/04/17 09:00:42;;;;;;;8.17;4.10;;;17.10;99.90;;;;;;5026653;28;20422;-46
2022/04/17 09:03:09;;;;;;;6.60;4.90;;;17.00;99.90;;;;;;5031206;28;20202;-47
2022/04/17 09:05:36;;;;;;;5.87;4.23;;;17.20;99.90;;;;;;5031131;28;20175;-46
2022/04/17 09:08:19;;;;;;;5.50;4.50;;;17.50;99.90;;;;;;5031158;28;20969;-47
2022/04/17 09:10:58;;;;;;;6.47;4.13;;;17.50;99.90;;;;;;5031377;28;20437;-47
2022/04/17 09:13:33;;;;;;;6.23;4.10;;;18.10;99.90;;;;;;5030631;28;20510;-46
2022/04/17 09:16:01;;;;;;;8.30;4.20;;;18.10;99.90;;;;;;5030907;28;20437;-46
2022/04/17 09:18:28;;;;;;;5.80;4.13;;;18.10;99.90;;;;;;5030880;28;20456;-47
2022/04/17 09:20:56;;;;;;;7.10;4.60;;;17.70;99.90;;;;;;5031494;28;21268;-46
2022/04/17 09:23:32;;;;;;;5.23;4.20;;;17.40;99.90;;;;;;5031000;28;21296;-47
2022/04/17 09:25:58;;;;;;;5.67;4.13;;;16.90;99.90;;;;;;5027865;28;20760;-47
2022/04/17 09:28:30;;;;;;;4.20;3.60;;;16.70;99.90;;;;;;5030741;28;20429;-47
2022/04/17 09:30:59;;;;;;;7.10;4.20;;;16.90;99.90;;;;;;5030424;28;20608;-47
2022/04/17 09:33:34;;;;;;;10.27;4.10;;;17.20;99.90;;;;;;5030469;28;20868;-46
2022/04/17 09:36:00;;;;;;;5.50;4.00;;;17.00;99.90;;;;;;5030381;28;20437;-46
2022/04/17 09:38:30;;;;;;;5.03;3.73;;;16.90;99.90;;;;;;5030795;28;20452;-47
2022/04/17 09:41:13;;;;;;;5.90;4.53;;;16.70;99.90;;;;;;5030226;28;20179;-48
2022/04/17 09:43:39;;;;;;;8.40;4.23;;;16.80;99.90;;;;;;5030592;28;20465;-47
2022/04/17 09:46:06;;;;;;;5.40;4.13;;;16.70;99.90;;;;;;5030049;28;20487;-46
2022/04/17 09:48:37;;;;;;;4.67;3.80;;;16.20;99.90;;;;;;5030059;28;20480;-46
2022/04/17 09:51:22;;;;;;;6.40;3.97;;;16.10;99.90;;;;;;5030163;28;20429;-46
2022/04/17 09:54:03;;;;;;;9.20;4.10;;;15.50;99.90;;;;;;5030284;28;21297;-46
2022/04/17 09:56:34;;;;;;;8.33;3.60;;;15.40;99.90;;;;;;5029868;28;20516;-47
2022/04/17 09:59:01;;;;;;;7.03;3.90;;;15.20;99.90;;;;;;5030253;28;20576;-47
2022/04/17 10:01:27;;;;;;;5.73;3.57;;;15.40;99.90;;;;;;5029444;28;20431;-47
2022/04/17 10:03:54;;;;;;;4.00;3.50;;;15.40;99.90;;;;;;5012326;28;20558;-48
2022/04/17 10:06:21;;;;;;;3.60;3.30;;;15.40;99.90;;;;;;5029636;28;20426;-48
2022/04/17 10:08:47;;;;;;;6.40;2.90;;;15.70;99.90;;;;;;5030137;28;20444;-48
2022/04/17 10:11:14;;;;;;;4.07;2.80;;;16.00;99.90;;;;;;5029901;28;20480;-48
2022/04/17 10:13:41;;;;;;;4.60;2.70;;;16.20;99.90;;;;;;5030605;28;20417;-48
2022/04/17 10:16:12;;;;;;;3.23;2.70;;;16.30;99.90;;;;;;5030062;28;20445;-48
2022/04/17 10:18:40;;;;;;;3.53;2.37;;;16.30;99.90;;;;;;5030487;28;20405;-49
2022/04/17 10:21:06;;;;;;;3.00;2.40;;;16.60;99.90;;;;;;5030483;28;20410;-48
2022/04/17 10:23:35;;;;;;;6.80;2.67;;;16.60;99.90;;;;;;5030240;28;21342;-49
2022/04/17 10:26:03;;;;;;;5.13;2.90;;;16.90;99.90;;;;;;5030322;28;20436;-48
2022/04/17 10:28:34;;;;;;;3.87;2.73;;;17.50;99.90;;;;;;5030444;28;20453;-48
2022/04/17 10:31:20;;;;;;;3.60;2.70;;;17.50;99.90;;;;;;5029604;28;20422;-48
2022/04/17 10:34:26;;;;;;;5.07;2.73;;;17.80;99.90;;;;;;5028167;28;20444;-48
2022/04/17 10:37:14;;;;;;;5.67;2.70;;;18.30;99.90;;;;;;5028689;28;20436;-48
2022/04/17 10:39:45;;;;;;;3.33;2.50;;;18.90;99.90;;;;;;5013576;28;20445;-48
2022/04/17 10:42:11;;;;;;;3.07;2.43;;;19.00;99.90;;;;;;5029178;28;20516;-48
2022/04/17 10:44:41;;;;;;;4.87;2.93;;;18.80;99.90;;;;;;5028833;28;21170;-48
2022/04/17 10:47:15;;;;;;;5.70;2.90;;;19.20;99.90;;;;;;5029749;28;20222;-48
2022/04/17 10:49:56;;;;;;;3.70;2.60;;;19.80;99.90;;;;;;5029757;28;20552;-48
2022/04/17 10:52:30;;;;;;;2.40;2.20;;;20.60;99.90;;;;;;5029399;28;20437;-48
2022/04/17 10:55:07;;;;;;;2.47;2.27;;;20.90;99.90;;;;;;5023017;28;20449;-48
2022/04/17 10:57:45;;;;;;;2.47;2.27;;;20.90;99.90;;;;;;5032778;28;20437;-48
2022/04/17 11:00:36;;;;;;;5.53;2.67;;;20.60;99.90;;;;;;5040010;28;20421;-48
2022/04/17 11:03:09;;;;;;;2.73;2.23;;;20.10;99.90;;;;;;5028913;28;20449;-49
2022/04/17 11:06:08;;;;;;;6.27;2.97;;;19.80;99.90;;;;;;5032954;28;20512;-48
2022/04/17 11:08:21;;;;;;;2.43;2.10;;;19.80;99.90;;;;;;5028540;28;21315;-48
2022/04/17 11:10:53;;;;;;;4.87;2.40;;;19.50;99.90;;;;;;5033647;28;20469;-48
2022/04/17 11:13:18;;;;;;;2.57;2.37;;;19.70;99.90;;;;;;5033582;28;20184;-48
2022/04/17 11:15:51;;;;;;;3.33;2.30;;;20.20;99.90;;;;;;5033267;28;20540;-48
2022/04/17 11:18:20;;;;;;;3.40;2.43;;;20.30;99.90;;;;;;5033999;28;20221;-48
2022/04/17 11:20:52;;;;;;;3.57;2.23;;;20.70;99.90;;;;;;5037477;28;20445;-48
2022/04/17 11:23:46;;;;;;;3.47;2.37;;;21.30;99.90;;;;;;5031296;28;20453;-49
2022/04/17 11:26:11;;;;;;;3.00;1.93;;;21.30;99.90;;;;;;5032699;28;20422;-48
2022/04/17 11:28:37;;;;;;;2.57;2.10;;;21.50;99.90;;;;;;5032974;28;20440;-49
2022/04/17 11:31:02;;;;;;;2.10;1.90;;;21.50;99.90;;;;;;5032889;28;20210;-49
2022/04/17 11:33:28;;;;;;;2.53;1.70;;;21.80;99.90;;;;;;5032786;28;20625;-49
2022/04/17 11:35:54;;;;;;;2.90;1.77;;;21.80;99.90;;;;;;5032631;28;20187;-48
2022/04/17 11:38:19;;;;;;;4.60;2.00;;;21.90;99.90;;;;;;5032394;28;20191;-48
2022/04/17 11:40:48;;;;;;;4.07;2.23;;;22.10;99.90;;;;;;5032934;28;20205;-49
2022/04/17 11:43:15;;;;;;;4.07;2.30;;;22.00;99.90;;;;;;5032707;28;20234;-49
2022/04/17 11:45:43;;;;;;;3.10;2.07;;;21.80;99.90;;;;;;5032760;28;20441;-49
2022/04/17 11:48:11;;;;;;;3.50;2.53;;;21.80;99.90;;;;;;5032544;28;20441;-49
2022/04/17 11:50:37;;;;;;;3.83;2.50;;;22.30;99.90;;;;;;5032766;28;20912;-49
2022/04/17 11:53:13;;;;;;;4.27;2.40;;;22.30;99.90;;;;;;5035383;28;20528;-54
2022/04/17 11:55:44;;;;;;;2.80;1.87;;;22.60;99.90;;;;;;5032504;28;20421;-50
2022/04/17 11:58:12;;;;;;;3.90;2.50;;;22.70;99.90;;;;;;5032487;28;20522;-49
2022/04/17 12:00:38;;;;;;;3.03;2.23;;;22.60;99.90;;;;;;5032748;28;20426;-49
2022/04/17 12:03:05;;;;;;;4.17;2.10;;;22.50;99.90;;;;;;5032160;28;20997;-49
2022/04/17 12:05:33;;;;;;;1.97;1.60;;;22.50;99.90;;;;;;5032096;28;20939;-49
2022/04/17 12:08:09;;;;;;;2.57;2.10;;;22.30;99.90;;;;;;5034344;28;20441;-49
2022/04/17 12:10:40;;;;;;;2.27;2.00;;;22.30;99.90;;;;;;5036395;28;20820;-48
2022/04/17 12:13:20;;;;;;;2.80;1.80;;;22.80;99.90;;;;;;5032107;28;20426;-49
2022/04/17 12:15:50;;;;;;;3.07;2.10;;;23.20;99.90;;;;;;5031945;28;20926;-49
2022/04/17 12:18:17;;;;;;;3.17;2.13;;;22.60;99.90;;;;;;5026292;28;20445;-49
2022/04/17 12:20:43;;;;;;;2.57;1.90;;;22.00;99.90;;;;;;5035285;28;20798;-49
2022/04/17 12:23:08;;;;;;;1.87;1.70;;;22.00;99.90;;;;;;5033430;28;20470;-49
2022/04/17 12:25:35;;;;;;;5.53;1.93;;;22.10;99.90;;;;;;5038275;28;20263;-49
2022/04/17 12:28:01;;;;;;;4.60;1.80;;;22.30;99.90;;;;;;5036939;28;20170;-48
2022/04/17 12:30:28;;;;;;;3.57;1.90;;;21.80;99.90;;;;;;5011977;28;21259;-49
2022/04/17 12:33:00;;;;;;;3.63;2.70;;;21.70;99.90;;;;;;5032514;28;20282;-49
2022/04/17 12:35:32;;;;;;;5.53;3.03;;;21.70;99.90;;;;;;5031851;28;20434;-49
2022/04/17 12:38:10;;;;;;;1.97;1.80;;;22.30;99.90;;;;;;5032086;28;20440;-49
2022/04/17 12:40:42;;;;;;;2.80;1.87;;;22.40;99.90;;;;;;5032146;28;20430;-49
2022/04/17 12:43:17;;;;;;;7.07;2.60;;;22.70;99.90;;;;;;5031739;28;20468;-49
2022/04/17 12:45:54;;;;;;;3.93;2.23;;;22.90;99.90;;;;;;5031342;28;20434;-49
2022/04/17 12:48:28;;;;;;;2.03;1.63;;;23.00;99.90;;;;;;5032381;28;20507;-49
2022/04/17 12:51:04;;;;;;;2.00;1.90;;;23.10;99.90;;;;;;5034802;28;21113;-49
2022/04/17 12:53:38;;;;;;;2.10;1.63;;;23.20;99.90;;;;;;5033117;28;20508;-49